Terminal Aerodrome Forecast
Issued by NWS Bismarck, ND

Home | Current Version | Previous Version | Text Only | Print | Product List | Glossary Off
Versions: 1 2 3 4 5 6 7 8 9 10 11 12 13 14 15

000
FTUS43 KBIS 202320
TAFBIS
TAF
KBIS 202320Z 2100/2124 14004KT P6SM FEW140 SCT200
     FM210900 VRB03KT P6SM VCSH SCT100 BKN120
     FM211500 VRB03KT P6SM BKN110
     FM211900 29007KT P6SM SCT200=

USA.gov is the U.S. government's official web portal to all federal, state and local government web resources and services.